Terminal Aerodrome Forecast
Issued by NWS

Home | Current Version | Previous Version | Text Only | Print | Product List | Glossary On
Versions: 1 2 3 4 5 6 7 8 9 10 11 12 13 14 15 16 17 18 19 20 21 22 23 24 25 26 27 28 29 30 31 32 33 34 35 36 37 38 39 40
000
FTUS42 KGSP 292334
TAFHKY
TAF
KHKY 292334Z 3000/3024 18005KT P6SM VCTS BKN045CB
     FM300200 00000KT P6SM BKN180
     FM300500 00000KT 5SM BR BKN180
      TEMPO 3009/3012 3SM BR SCT040
     FM301300 00000KT P6SM SCT220
     FM301600 26003KT P6SM BKN040
     FM301800 30005KT P6SM BKN050 PROB30 3018/3022 4SM TSRA
      BKN040CB=

USA.gov is the U.S. government's official web portal to all federal, state and local government web resources and services.